Cumberland, Iowa
Current Conditions -  °F | °C
As of 12:55 PM on Monday 20 Oct 2014 (Local Time) from KAIO Reporting Station
Clear Clear  
Wind Chill: 68°   Ceiling: Unl
Heat Index: 68°   Visibility: 10mi
Dew Point: 43°   Wind: 10mph
Humidity: 40%   Direction: 350°N
Pressure: 30.06"   Gusts: NA
Location:  41.27°N, 94.87°W
Report Text: KAIO 201755Z AUTO 35009KT 10SM CLR 20/06 A3006 RMK AO2
Loading
Personal Weather Stations






























Interactive Weather Map
Tropical Storm Tracking
New forecast layout! Learn more

10-Day Weather Forecast

Advertisements
Track Severe Weather on mobile